Terminal Aerodrome Forecast
Issued by NWS Louisville, KY

Home | Current Version | Previous Version | Text Only | Print | Product List | Glossary On
Versions: 1 2 3 4 5 6 7 8 9 10 11 12 13 14 15
000
FTUS43 KLMK 200520
TAFSDF
TAF
KSDF 200520Z 2006/2112 22005KT P6SM BKN060 BKN120
     FM201300 26006KT P6SM SCT250
     FM210000 27007KT P6SM BKN250=

USA.gov is the U.S. government's official web portal to all federal, state and local government web resources and services.